sensor_id;sensor_type;location;lat;lon;timestamp;P1;durP1;ratioP1;P2;durP2;ratioP2
36839;SDS011;24406;51.640;9.566;2023-03-01T00:04:37;18.08;;;10.55;;
36839;SDS011;24406;51.640;9.566;2023-03-01T00:09:40;14.43;;;9.07;;
36839;SDS011;24406;51.640;9.566;2023-03-01T00:14:41;17.08;;;10.30;;
36839;SDS011;24406;51.640;9.566;2023-03-01T00:19:43;13.65;;;9.77;;
36839;SDS011;24406;51.640;9.566;2023-03-01T00:24:46;16.08;;;9.55;;
36839;SDS011;24406;51.640;9.566;2023-03-01T00:29:48;15.93;;;10.57;;
36839;SDS011;24406;51.640;9.566;2023-03-01T00:34:49;12.50;;;9.70;;
36839;SDS011;24406;51.640;9.566;2023-03-01T00:39:56;12.10;;;7.78;;
36839;SDS011;24406;51.640;9.566;2023-03-01T00:44:58;15.15;;;9.63;;
36839;SDS011;24406;51.640;9.566;2023-03-01T00:49:59;13.15;;;9.18;;
36839;SDS011;24406;51.640;9.566;2023-03-01T00:55:03;15.30;;;8.95;;
36839;SDS011;24406;51.640;9.566;2023-03-01T01:00:05;15.50;;;9.60;;
36839;SDS011;24406;51.640;9.566;2023-03-01T01:05:09;12.57;;;9.15;;
36839;SDS011;24406;51.640;9.566;2023-03-01T01:10:13;15.63;;;9.05;;
36839;SDS011;24406;51.640;9.566;2023-03-01T01:15:17;16.08;;;10.38;;
36839;SDS011;24406;51.640;9.566;2023-03-01T01:20:19;16.35;;;10.25;;
36839;SDS011;24406;51.640;9.566;2023-03-01T01:25:22;13.52;;;9.25;;
36839;SDS011;24406;51.640;9.566;2023-03-01T01:30:25;13.60;;;8.93;;
36839;SDS011;24406;51.640;9.566;2023-03-01T01:35:27;11.07;;;8.63;;
36839;SDS011;24406;51.640;9.566;2023-03-01T01:40:30;14.85;;;8.70;;
36839;SDS011;24406;51.640;9.566;2023-03-01T01:45:32;12.95;;;9.50;;
36839;SDS011;24406;51.640;9.566;2023-03-01T01:50:34;13.00;;;9.25;;
36839;SDS011;24406;51.640;9.566;2023-03-01T01:55:41;13.60;;;9.55;;
36839;SDS011;24406;51.640;9.566;2023-03-01T02:00:44;15.25;;;9.63;;
36839;SDS011;24406;51.640;9.566;2023-03-01T02:05:46;14.15;;;9.27;;
36839;SDS011;24406;51.640;9.566;2023-03-01T02:10:52;13.80;;;8.73;;
36839;SDS011;24406;51.640;9.566;2023-03-01T02:15:54;14.88;;;9.18;;
36839;SDS011;24406;51.640;9.566;2023-03-01T02:20:59;13.52;;;9.18;;
36839;SDS011;24406;51.640;9.566;2023-03-01T02:26:09;13.93;;;9.25;;
36839;SDS011;24406;51.640;9.566;2023-03-01T02:31:15;15.90;;;10.95;;
36839;SDS011;24406;51.640;9.566;2023-03-01T02:36:36;15.77;;;10.63;;
36839;SDS011;24406;51.640;9.566;2023-03-01T02:41:41;14.18;;;9.82;;
36839;SDS011;24406;51.640;9.566;2023-03-01T02:46:45;14.85;;;9.75;;
36839;SDS011;24406;51.640;9.566;2023-03-01T02:51:52;13.30;;;9.02;;
36839;SDS011;24406;51.640;9.566;2023-03-01T02:57:03;13.45;;;9.05;;
36839;SDS011;24406;51.640;9.566;2023-03-01T03:02:07;19.77;;;9.75;;
36839;SDS011;24406;51.640;9.566;2023-03-01T03:07:08;14.90;;;9.85;;
36839;SDS011;24406;51.640;9.566;2023-03-01T03:12:10;19.92;;;10.55;;
36839;SDS011;24406;51.640;9.566;2023-03-01T03:17:13;35.50;;;19.92;;
36839;SDS011;24406;51.640;9.566;2023-03-01T03:22:15;35.10;;;20.95;;
36839;SDS011;24406;51.640;9.566;2023-03-01T03:27:16;32.20;;;15.85;;
36839;SDS011;24406;51.640;9.566;2023-03-01T03:32:19;30.77;;;17.25;;
36839;SDS011;24406;51.640;9.566;2023-03-01T03:37:21;24.20;;;16.50;;
36839;SDS011;24406;51.640;9.566;2023-03-01T03:42:39;29.50;;;16.10;;
36839;SDS011;24406;51.640;9.566;2023-03-01T03:47:42;22.40;;;13.15;;
36839;SDS011;24406;51.640;9.566;2023-03-01T03:52:44;16.92;;;11.27;;
36839;SDS011;24406;51.640;9.566;2023-03-01T03:57:46;18.15;;;11.48;;
36839;SDS011;24406;51.640;9.566;2023-03-01T04:02:52;19.88;;;11.88;;
36839;SDS011;24406;51.640;9.566;2023-03-01T04:07:56;18.98;;;11.70;;
36839;SDS011;24406;51.640;9.566;2023-03-01T04:13:07;16.80;;;10.68;;
36839;SDS011;24406;51.640;9.566;2023-03-01T04:18:13;14.27;;;9.27;;
36839;SDS011;24406;51.640;9.566;2023-03-01T04:23:16;16.48;;;9.90;;
36839;SDS011;24406;51.640;9.566;2023-03-01T04:28:21;15.35;;;9.30;;
36839;SDS011;24406;51.640;9.566;2023-03-01T04:33:25;17.88;;;11.27;;
36839;SDS011;24406;51.640;9.566;2023-03-01T04:38:27;16.67;;;10.25;;
36839;SDS011;24406;51.640;9.566;2023-03-01T04:43:28;18.70;;;10.32;;
36839;SDS011;24406;51.640;9.566;2023-03-01T04:48:31;16.05;;;10.88;;
36839;SDS011;24406;51.640;9.566;2023-03-01T04:53:34;15.82;;;10.18;;
36839;SDS011;24406;51.640;9.566;2023-03-01T04:58:36;15.35;;;10.75;;
36839;SDS011;24406;51.640;9.566;2023-03-01T05:03:39;16.85;;;11.45;;
36839;SDS011;24406;51.640;9.566;2023-03-01T05:08:41;15.05;;;9.70;;
36839;SDS011;24406;51.640;9.566;2023-03-01T05:13:42;20.15;;;11.90;;
36839;SDS011;24406;51.640;9.566;2023-03-01T05:18:45;21.10;;;13.65;;
36839;SDS011;24406;51.640;9.566;2023-03-01T05:23:47;18.50;;;13.50;;
36839;SDS011;24406;51.640;9.566;2023-03-01T05:28:48;20.10;;;11.90;;
36839;SDS011;24406;51.640;9.566;2023-03-01T05:33:51;15.98;;;10.93;;
36839;SDS011;24406;51.640;9.566;2023-03-01T05:38:53;19.13;;;12.20;;
36839;SDS011;24406;51.640;9.566;2023-03-01T05:43:54;18.65;;;12.43;;
36839;SDS011;24406;51.640;9.566;2023-03-01T05:48:57;18.92;;;13.98;;
36839;SDS011;24406;51.640;9.566;2023-03-01T05:54:00;16.85;;;12.13;;
36839;SDS011;24406;51.640;9.566;2023-03-01T05:59:02;19.33;;;13.02;;
36839;SDS011;24406;51.640;9.566;2023-03-01T06:04:06;22.23;;;13.57;;
36839;SDS011;24406;51.640;9.566;2023-03-01T06:09:07;21.65;;;14.13;;
36839;SDS011;24406;51.640;9.566;2023-03-01T06:14:10;18.67;;;11.45;;
36839;SDS011;24406;51.640;9.566;2023-03-01T06:19:16;18.23;;;10.63;;
36839;SDS011;24406;51.640;9.566;2023-03-01T06:24:17;20.25;;;11.50;;
36839;SDS011;24406;51.640;9.566;2023-03-01T06:29:19;18.83;;;10.75;;
36839;SDS011;24406;51.640;9.566;2023-03-01T06:34:23;17.17;;;10.52;;
36839;SDS011;24406;51.640;9.566;2023-03-01T06:39:27;19.67;;;9.80;;
36839;SDS011;24406;51.640;9.566;2023-03-01T06:44:29;17.92;;;11.40;;
36839;SDS011;24406;51.640;9.566;2023-03-01T06:49:32;20.27;;;12.20;;
36839;SDS011;24406;51.640;9.566;2023-03-01T06:54:33;17.05;;;11.10;;
36839;SDS011;24406;51.640;9.566;2023-03-01T06:59:35;17.23;;;11.88;;
36839;SDS011;24406;51.640;9.566;2023-03-01T07:04:38;22.40;;;12.77;;
36839;SDS011;24406;51.640;9.566;2023-03-01T07:09:39;19.02;;;12.85;;
36839;SDS011;24406;51.640;9.566;2023-03-01T07:14:41;21.85;;;13.43;;
36839;SDS011;24406;51.640;9.566;2023-03-01T07:19:46;19.17;;;13.32;;
36839;SDS011;24406;51.640;9.566;2023-03-01T07:24:47;19.83;;;13.75;;
36839;SDS011;24406;51.640;9.566;2023-03-01T07:29:49;20.98;;;13.15;;
36839;SDS011;24406;51.640;9.566;2023-03-01T07:34:52;21.73;;;14.15;;
36839;SDS011;24406;51.640;9.566;2023-03-01T07:39:53;24.40;;;15.88;;
36839;SDS011;24406;51.640;9.566;2023-03-01T07:44:55;34.53;;;21.08;;
36839;SDS011;24406;51.640;9.566;2023-03-01T07:49:58;27.90;;;18.88;;
36839;SDS011;24406;51.640;9.566;2023-03-01T07:55:01;22.25;;;15.25;;
36839;SDS011;24406;51.640;9.566;2023-03-01T08:00:03;20.45;;;14.68;;
36839;SDS011;24406;51.640;9.566;2023-03-01T08:05:13;21.50;;;16.73;;
36839;SDS011;24406;51.640;9.566;2023-03-01T08:10:15;22.67;;;15.45;;
36839;SDS011;24406;51.640;9.566;2023-03-01T08:15:17;23.45;;;17.30;;
36839;SDS011;24406;51.640;9.566;2023-03-01T08:20:20;21.02;;;15.70;;
36839;SDS011;24406;51.640;9.566;2023-03-01T08:25:21;20.23;;;15.68;;
36839;SDS011;24406;51.640;9.566;2023-03-01T08:30:23;21.38;;;16.00;;
36839;SDS011;24406;51.640;9.566;2023-03-01T08:35:26;30.38;;;16.85;;
36839;SDS011;24406;51.640;9.566;2023-03-01T08:40:27;24.30;;;16.60;;
36839;SDS011;24406;51.640;9.566;2023-03-01T08:45:29;18.80;;;15.05;;
36839;SDS011;24406;51.640;9.566;2023-03-01T08:50:32;17.80;;;14.35;;
36839;SDS011;24406;51.640;9.566;2023-03-01T08:55:34;23.42;;;18.17;;
36839;SDS011;24406;51.640;9.566;2023-03-01T09:00:35;20.00;;;15.80;;
36839;SDS011;24406;51.640;9.566;2023-03-01T09:05:38;24.42;;;16.45;;
36839;SDS011;24406;51.640;9.566;2023-03-01T09:10:40;26.25;;;19.00;;
36839;SDS011;24406;51.640;9.566;2023-03-01T09:15:41;25.73;;;18.83;;
36839;SDS011;24406;51.640;9.566;2023-03-01T09:20:44;21.77;;;16.13;;
36839;SDS011;24406;51.640;9.566;2023-03-01T09:25:46;20.80;;;16.15;;
36839;SDS011;24406;51.640;9.566;2023-03-01T09:36:07;18.65;;;13.40;;
36839;SDS011;24406;51.640;9.566;2023-03-01T09:41:09;17.73;;;12.45;;
36839;SDS011;24406;51.640;9.566;2023-03-01T09:46:13;15.55;;;11.27;;
36839;SDS011;24406;51.640;9.566;2023-03-01T09:51:19;9.63;;;7.82;;
36839;SDS011;24406;51.640;9.566;2023-03-01T09:57:38;11.32;;;7.70;;
36839;SDS011;24406;51.640;9.566;2023-03-01T10:02:59;8.75;;;6.53;;
36839;SDS011;24406;51.640;9.566;2023-03-01T10:13:36;9.52;;;7.18;;
36839;SDS011;24406;51.640;9.566;2023-03-01T10:23:44;9.32;;;7.00;;
36839;SDS011;24406;51.640;9.566;2023-03-01T10:28:50;10.43;;;6.60;;
36839;SDS011;24406;51.640;9.566;2023-03-01T10:33:57;10.30;;;7.57;;
36839;SDS011;24406;51.640;9.566;2023-03-01T10:39:00;11.50;;;7.35;;
36839;SDS011;24406;51.640;9.566;2023-03-01T10:44:34;10.18;;;7.90;;
36839;SDS011;24406;51.640;9.566;2023-03-01T10:49:37;8.25;;;7.30;;
36839;SDS011;24406;51.640;9.566;2023-03-01T10:54:40;9.05;;;7.05;;
36839;SDS011;24406;51.640;9.566;2023-03-01T10:59:42;8.05;;;6.22;;
36839;SDS011;24406;51.640;9.566;2023-03-01T11:04:57;9.48;;;7.60;;
36839;SDS011;24406;51.640;9.566;2023-03-01T11:10:02;11.48;;;8.10;;
36839;SDS011;24406;51.640;9.566;2023-03-01T11:15:19;11.13;;;6.85;;
36839;SDS011;24406;51.640;9.566;2023-03-01T11:20:27;8.23;;;6.43;;
36839;SDS011;24406;51.640;9.566;2023-03-01T11:30:35;7.95;;;6.80;;
36839;SDS011;24406;51.640;9.566;2023-03-01T11:35:41;8.48;;;7.57;;
36839;SDS011;24406;51.640;9.566;2023-03-01T11:40:46;6.47;;;5.78;;
36839;SDS011;24406;51.640;9.566;2023-03-01T11:45:54;9.80;;;6.38;;
36839;SDS011;24406;51.640;9.566;2023-03-01T11:51:04;7.57;;;6.45;;
36839;SDS011;24406;51.640;9.566;2023-03-01T11:56:12;7.13;;;6.18;;
36839;SDS011;24406;51.640;9.566;2023-03-01T12:01:22;7.20;;;6.05;;
36839;SDS011;24406;51.640;9.566;2023-03-01T12:06:33;7.97;;;6.35;;
36839;SDS011;24406;51.640;9.566;2023-03-01T12:11:43;7.80;;;6.32;;
36839;SDS011;24406;51.640;9.566;2023-03-01T12:16:58;8.57;;;7.78;;
36839;SDS011;24406;51.640;9.566;2023-03-01T12:22:21;9.98;;;7.07;;
36839;SDS011;24406;51.640;9.566;2023-03-01T12:27:37;9.93;;;7.05;;
36839;SDS011;24406;51.640;9.566;2023-03-01T12:33:04;7.90;;;5.55;;
36839;SDS011;24406;51.640;9.566;2023-03-01T12:38:14;8.55;;;6.45;;
36839;SDS011;24406;51.640;9.566;2023-03-01T12:43:26;6.28;;;5.40;;
36839;SDS011;24406;51.640;9.566;2023-03-01T12:48:38;9.05;;;6.90;;
36839;SDS011;24406;51.640;9.566;2023-03-01T12:53:51;6.30;;;5.60;;
36839;SDS011;24406;51.640;9.566;2023-03-01T13:04:12;6.85;;;5.60;;
36839;SDS011;24406;51.640;9.566;2023-03-01T13:09:23;16.65;;;6.32;;
36839;SDS011;24406;51.640;9.566;2023-03-01T13:14:36;9.02;;;6.45;;
36839;SDS011;24406;51.640;9.566;2023-03-01T13:19:39;7.15;;;6.07;;
36839;SDS011;24406;51.640;9.566;2023-03-01T13:24:42;8.32;;;6.10;;
36839;SDS011;24406;51.640;9.566;2023-03-01T13:29:45;7.85;;;6.78;;
36839;SDS011;24406;51.640;9.566;2023-03-01T13:34:54;8.63;;;7.13;;
36839;SDS011;24406;51.640;9.566;2023-03-01T13:39:57;7.63;;;6.47;;
36839;SDS011;24406;51.640;9.566;2023-03-01T13:45:12;7.22;;;6.53;;
36839;SDS011;24406;51.640;9.566;2023-03-01T13:50:19;16.58;;;8.70;;
36839;SDS011;24406;51.640;9.566;2023-03-01T13:55:32;6.78;;;6.00;;
36839;SDS011;24406;51.640;9.566;2023-03-01T14:00:39;9.35;;;7.10;;
36839;SDS011;24406;51.640;9.566;2023-03-01T14:05:42;11.13;;;7.57;;
36839;SDS011;24406;51.640;9.566;2023-03-01T14:10:47;11.35;;;7.07;;
36839;SDS011;24406;51.640;9.566;2023-03-01T14:16:01;7.28;;;6.50;;
36839;SDS011;24406;51.640;9.566;2023-03-01T14:21:12;8.65;;;6.85;;
36839;SDS011;24406;51.640;9.566;2023-03-01T14:26:19;7.13;;;6.35;;
36839;SDS011;24406;51.640;9.566;2023-03-01T14:31:34;12.07;;;9.18;;
36839;SDS011;24406;51.640;9.566;2023-03-01T14:36:37;13.15;;;8.20;;
36839;SDS011;24406;51.640;9.566;2023-03-01T14:41:39;8.05;;;7.07;;
36839;SDS011;24406;51.640;9.566;2023-03-01T14:46:43;11.38;;;9.25;;
36839;SDS011;24406;51.640;9.566;2023-03-01T14:51:47;10.68;;;7.95;;
36839;SDS011;24406;51.640;9.566;2023-03-01T14:56:52;7.93;;;6.53;;
36839;SDS011;24406;51.640;9.566;2023-03-01T15:01:57;8.25;;;7.18;;
36839;SDS011;24406;51.640;9.566;2023-03-01T15:06:59;8.60;;;7.07;;
36839;SDS011;24406;51.640;9.566;2023-03-01T15:17:37;9.55;;;7.15;;
36839;SDS011;24406;51.640;9.566;2023-03-01T15:22:43;8.32;;;7.20;;
36839;SDS011;24406;51.640;9.566;2023-03-01T15:27:49;10.18;;;7.85;;
36839;SDS011;24406;51.640;9.566;2023-03-01T15:38:31;8.82;;;7.20;;
36839;SDS011;24406;51.640;9.566;2023-03-01T15:43:39;8.13;;;7.18;;
36839;SDS011;24406;51.640;9.566;2023-03-01T15:48:45;8.18;;;6.38;;
36839;SDS011;24406;51.640;9.566;2023-03-01T15:53:50;10.38;;;7.35;;
36839;SDS011;24406;51.640;9.566;2023-03-01T15:58:52;9.30;;;6.88;;
36839;SDS011;24406;51.640;9.566;2023-03-01T16:03:55;9.90;;;6.53;;
36839;SDS011;24406;51.640;9.566;2023-03-01T16:08:58;8.80;;;6.97;;
36839;SDS011;24406;51.640;9.566;2023-03-01T16:13:59;6.75;;;5.68;;
36839;SDS011;24406;51.640;9.566;2023-03-01T16:19:02;10.50;;;6.68;;
36839;SDS011;24406;51.640;9.566;2023-03-01T16:24:04;18.83;;;13.00;;
36839;SDS011;24406;51.640;9.566;2023-03-01T16:29:06;9.82;;;7.15;;
36839;SDS011;24406;51.640;9.566;2023-03-01T16:34:09;21.33;;;15.20;;
36839;SDS011;24406;51.640;9.566;2023-03-01T16:39:10;10.00;;;6.53;;
36839;SDS011;24406;51.640;9.566;2023-03-01T16:44:12;8.75;;;6.53;;
36839;SDS011;24406;51.640;9.566;2023-03-01T16:49:18;8.35;;;5.80;;
36839;SDS011;24406;51.640;9.566;2023-03-01T16:54:19;7.53;;;6.15;;
36839;SDS011;24406;51.640;9.566;2023-03-01T16:59:26;13.93;;;9.05;;
36839;SDS011;24406;51.640;9.566;2023-03-01T17:04:29;9.02;;;7.38;;
36839;SDS011;24406;51.640;9.566;2023-03-01T17:09:33;14.57;;;10.77;;
36839;SDS011;24406;51.640;9.566;2023-03-01T17:14:38;15.40;;;12.15;;
36839;SDS011;24406;51.640;9.566;2023-03-01T17:19:52;10.00;;;7.70;;
36839;SDS011;24406;51.640;9.566;2023-03-01T17:24:53;8.55;;;7.18;;
36839;SDS011;24406;51.640;9.566;2023-03-01T17:30:01;16.98;;;10.13;;
36839;SDS011;24406;51.640;9.566;2023-03-01T17:40:27;15.43;;;9.75;;
36839;SDS011;24406;51.640;9.566;2023-03-01T17:45:53;11.27;;;7.80;;
36839;SDS011;24406;51.640;9.566;2023-03-01T17:51:02;10.20;;;7.03;;
36839;SDS011;24406;51.640;9.566;2023-03-01T17:56:42;8.82;;;6.47;;
36839;SDS011;24406;51.640;9.566;2023-03-01T18:01:50;11.40;;;6.85;;
36839;SDS011;24406;51.640;9.566;2023-03-01T18:12:13;8.38;;;6.80;;
36839;SDS011;24406;51.640;9.566;2023-03-01T18:17:31;9.75;;;6.97;;
36839;SDS011;24406;51.640;9.566;2023-03-01T18:22:38;9.63;;;6.50;;
36839;SDS011;24406;51.640;9.566;2023-03-01T18:27:39;8.10;;;5.95;;
36839;SDS011;24406;51.640;9.566;2023-03-01T18:32:44;10.90;;;6.50;;
36839;SDS011;24406;51.640;9.566;2023-03-01T18:37:47;9.10;;;6.38;;
36839;SDS011;24406;51.640;9.566;2023-03-01T18:43:14;8.15;;;6.45;;
36839;SDS011;24406;51.640;9.566;2023-03-01T18:48:28;12.32;;;7.13;;
36839;SDS011;24406;51.640;9.566;2023-03-01T18:53:37;9.98;;;7.07;;
36839;SDS011;24406;51.640;9.566;2023-03-01T18:58:39;11.07;;;7.35;;
36839;SDS011;24406;51.640;9.566;2023-03-01T19:03:44;10.07;;;7.20;;
36839;SDS011;24406;51.640;9.566;2023-03-01T19:09:38;12.60;;;9.47;;
36839;SDS011;24406;51.640;9.566;2023-03-01T19:14:44;11.35;;;8.55;;
36839;SDS011;24406;51.640;9.566;2023-03-01T19:20:08;9.35;;;7.15;;
36839;SDS011;24406;51.640;9.566;2023-03-01T19:25:20;6.93;;;5.63;;
36839;SDS011;24406;51.640;9.566;2023-03-01T19:30:28;7.50;;;6.32;;
36839;SDS011;24406;51.640;9.566;2023-03-01T19:35:35;6.43;;;4.85;;
36839;SDS011;24406;51.640;9.566;2023-03-01T19:40:38;8.13;;;5.90;;
36839;SDS011;24406;51.640;9.566;2023-03-01T19:45:40;12.75;;;7.90;;
36839;SDS011;24406;51.640;9.566;2023-03-01T19:50:51;10.55;;;7.60;;
36839;SDS011;24406;51.640;9.566;2023-03-01T20:01:15;12.90;;;7.60;;
36839;SDS011;24406;51.640;9.566;2023-03-01T20:06:27;10.68;;;7.03;;
36839;SDS011;24406;51.640;9.566;2023-03-01T20:11:49;11.07;;;6.93;;
36839;SDS011;24406;51.640;9.566;2023-03-01T20:22:46;15.88;;;10.80;;
36839;SDS011;24406;51.640;9.566;2023-03-01T20:27:56;18.48;;;11.18;;
36839;SDS011;24406;51.640;9.566;2023-03-01T20:33:03;19.05;;;12.88;;
36839;SDS011;24406;51.640;9.566;2023-03-01T20:38:05;13.13;;;8.73;;
36839;SDS011;24406;51.640;9.566;2023-03-01T20:43:09;11.85;;;8.77;;
36839;SDS011;24406;51.640;9.566;2023-03-01T20:48:18;15.05;;;10.07;;
36839;SDS011;24406;51.640;9.566;2023-03-01T20:59:12;27.63;;;13.65;;
36839;SDS011;24406;51.640;9.566;2023-03-01T21:04:15;18.05;;;11.50;;
36839;SDS011;24406;51.640;9.566;2023-03-01T21:09:17;14.27;;;9.65;;
36839;SDS011;24406;51.640;9.566;2023-03-01T21:14:20;13.90;;;8.05;;
36839;SDS011;24406;51.640;9.566;2023-03-01T21:19:28;10.52;;;7.43;;
36839;SDS011;24406;51.640;9.566;2023-03-01T21:24:36;13.30;;;9.57;;
36839;SDS011;24406;51.640;9.566;2023-03-01T21:29:46;24.23;;;16.30;;
36839;SDS011;24406;51.640;9.566;2023-03-01T21:34:48;25.50;;;17.50;;
36839;SDS011;24406;51.640;9.566;2023-03-01T21:39:50;28.40;;;17.83;;
36839;SDS011;24406;51.640;9.566;2023-03-01T21:44:53;27.75;;;16.35;;
36839;SDS011;24406;51.640;9.566;2023-03-01T21:49:55;28.80;;;17.60;;
36839;SDS011;24406;51.640;9.566;2023-03-01T21:54:59;29.05;;;17.40;;
36839;SDS011;24406;51.640;9.566;2023-03-01T22:00:14;24.10;;;15.20;;
36839;SDS011;24406;51.640;9.566;2023-03-01T22:05:24;42.03;;;24.00;;
36839;SDS011;24406;51.640;9.566;2023-03-01T22:10:26;36.53;;;20.25;;
36839;SDS011;24406;51.640;9.566;2023-03-01T22:15:38;31.40;;;18.52;;
36839;SDS011;24406;51.640;9.566;2023-03-01T22:20:42;31.02;;;18.50;;
36839;SDS011;24406;51.640;9.566;2023-03-01T22:25:46;25.02;;;13.68;;
36839;SDS011;24406;51.640;9.566;2023-03-01T22:30:49;27.13;;;15.73;;
36839;SDS011;24406;51.640;9.566;2023-03-01T22:35:55;30.48;;;17.35;;
36839;SDS011;24406;51.640;9.566;2023-03-01T22:41:03;26.55;;;14.32;;
36839;SDS011;24406;51.640;9.566;2023-03-01T22:46:09;23.27;;;13.35;;
36839;SDS011;24406;51.640;9.566;2023-03-01T22:51:15;29.90;;;16.90;;
36839;SDS011;24406;51.640;9.566;2023-03-01T22:56:22;23.75;;;13.93;;
36839;SDS011;24406;51.640;9.566;2023-03-01T23:01:35;17.92;;;11.20;;
36839;SDS011;24406;51.640;9.566;2023-03-01T23:06:40;16.70;;;10.30;;
36839;SDS011;24406;51.640;9.566;2023-03-01T23:11:51;20.95;;;11.95;;
36839;SDS011;24406;51.640;9.566;2023-03-01T23:17:02;15.68;;;9.93;;
36839;SDS011;24406;51.640;9.566;2023-03-01T23:22:06;11.13;;;8.00;;
36839;SDS011;24406;51.640;9.566;2023-03-01T23:27:07;15.05;;;7.82;;
36839;SDS011;24406;51.640;9.566;2023-03-01T23:32:18;10.68;;;7.60;;
36839;SDS011;24406;51.640;9.566;2023-03-01T23:37:22;13.73;;;8.50;;
36839;SDS011;24406;51.640;9.566;2023-03-01T23:42:23;12.52;;;6.90;;
36839;SDS011;24406;51.640;9.566;2023-03-01T23:47:26;13.25;;;7.32;;
36839;SDS011;24406;51.640;9.566;2023-03-01T23:52:31;10.93;;;8.07;;
36839;SDS011;24406;51.640;9.566;2023-03-01T23:57:40;11.93;;;8.35;;
